Ware Neck, Virginia
Current Conditions -  °F | °C
As of 12:55 AM on Tuesday 27 Jan 2015 (Local Time) from KW75 Reporting Station
Overcast Overcast  
Wind Chill: 21°   Ceiling: 800
Heat Index: 31°   Visibility: 4mi
Dew Point: 29°   Wind: 13mph
Humidity: 92%   Direction: 330°NNW
Pressure: 29.67"   Gusts: 21mph
Location:  37.4°N, 76.46°W
Report Text: KW75 270555Z AUTO 33011G18KT 4SM OVC008 00/M02 A2967 RMK AO1 T10051017 10025 21005
Loading
Personal Weather Stations






























Interactive Weather Map New forecast layout! Learn more

10-Day Weather Forecast

Advertisements
Track Severe Weather on mobile